sensor_id;sensor_type;location;lat;lon;timestamp;pressure;altitude;pressure_sealevel;temperature;humidity
38806;BME280;25635;51.146;17.162;2023-10-13T00:01:59;100039.96;;;13.61;90.96
38806;BME280;25635;51.146;17.162;2023-10-13T00:04:30;100038.69;;;13.64;91.16
38806;BME280;25635;51.146;17.162;2023-10-13T00:06:58;100038.20;;;13.62;91.65
38806;BME280;25635;51.146;17.162;2023-10-13T00:09:28;100040.64;;;13.62;91.38
38806;BME280;25635;51.146;17.162;2023-10-13T00:12:05;100034.99;;;13.64;91.13
38806;BME280;25635;51.146;17.162;2023-10-13T00:14:40;100039.65;;;13.66;90.87
38806;BME280;25635;51.146;17.162;2023-10-13T00:17:08;100038.94;;;13.67;90.72
38806;BME280;25635;51.146;17.162;2023-10-13T00:19:36;100039.11;;;13.67;90.59
38806;BME280;25635;51.146;17.162;2023-10-13T00:22:18;100040.36;;;13.67;90.57
38806;BME280;25635;51.146;17.162;2023-10-13T00:24:45;100045.63;;;13.66;90.53
38806;BME280;25635;51.146;17.162;2023-10-13T00:27:14;100044.61;;;13.64;91.24
38806;BME280;25635;51.146;17.162;2023-10-13T00:30:00;100045.02;;;13.63;90.83
38806;BME280;25635;51.146;17.162;2023-10-13T00:32:43;100041.33;;;13.63;90.48
38806;BME280;25635;51.146;17.162;2023-10-13T00:35:11;100044.67;;;13.62;90.41
38806;BME280;25635;51.146;17.162;2023-10-13T00:38:02;100045.69;;;13.64;90.26
38806;BME280;25635;51.146;17.162;2023-10-13T00:40:43;100042.53;;;13.64;90.25
38806;BME280;25635;51.146;17.162;2023-10-13T00:43:19;100046.17;;;13.65;90.40
38806;BME280;25635;51.146;17.162;2023-10-13T00:45:48;100039.38;;;13.64;90.51
38806;BME280;25635;51.146;17.162;2023-10-13T00:48:21;100041.13;;;13.64;90.45
38806;BME280;25635;51.146;17.162;2023-10-13T00:50:59;100037.83;;;13.62;90.32
38806;BME280;25635;51.146;17.162;2023-10-13T00:53:32;100035.23;;;13.61;90.29
38806;BME280;25635;51.146;17.162;2023-10-13T00:56:01;100040.23;;;13.57;90.42
38806;BME280;25635;51.146;17.162;2023-10-13T00:58:36;100042.73;;;13.55;90.20
38806;BME280;25635;51.146;17.162;2023-10-13T01:01:04;100039.39;;;13.55;90.24
38806;BME280;25635;51.146;17.162;2023-10-13T01:03:56;100041.50;;;13.55;90.11
38806;BME280;25635;51.146;17.162;2023-10-13T01:06:26;100040.81;;;13.54;90.03
38806;BME280;25635;51.146;17.162;2023-10-13T01:09:01;100043.25;;;13.55;90.00
38806;BME280;25635;51.146;17.162;2023-10-13T01:11:38;100043.25;;;13.55;90.01
38806;BME280;25635;51.146;17.162;2023-10-13T01:14:04;100044.11;;;13.55;89.90
38806;BME280;25635;51.146;17.162;2023-10-13T01:16:31;100047.83;;;13.53;90.27
38806;BME280;25635;51.146;17.162;2023-10-13T01:18:57;100049.50;;;13.49;90.45
38806;BME280;25635;51.146;17.162;2023-10-13T01:21:26;100050.45;;;13.46;90.21
38806;BME280;25635;51.146;17.162;2023-10-13T01:23:54;100051.71;;;13.44;90.07
38806;BME280;25635;51.146;17.162;2023-10-13T01:26:23;100060.50;;;13.43;90.14
38806;BME280;25635;51.146;17.162;2023-10-13T01:28:51;100059.98;;;13.43;90.16
38806;BME280;25635;51.146;17.162;2023-10-13T01:31:17;100059.64;;;13.43;90.06
38806;BME280;25635;51.146;17.162;2023-10-13T01:33:57;100056.66;;;13.42;90.04
38806;BME280;25635;51.146;17.162;2023-10-13T01:36:29;100053.67;;;13.42;90.02
38806;BME280;25635;51.146;17.162;2023-10-13T01:39:01;100049.27;;;13.44;90.13
38806;BME280;25635;51.146;17.162;2023-10-13T01:41:27;100047.35;;;13.44;89.97
38806;BME280;25635;51.146;17.162;2023-10-13T01:43:55;100050.66;;;13.44;90.19
38806;BME280;25635;51.146;17.162;2023-10-13T01:46:23;100049.44;;;13.44;90.31
38806;BME280;25635;51.146;17.162;2023-10-13T01:48:49;100047.52;;;13.45;90.09
38806;BME280;25635;51.146;17.162;2023-10-13T01:51:15;100050.34;;;13.44;90.27
38806;BME280;25635;51.146;17.162;2023-10-13T01:53:41;100057.48;;;13.45;90.59
38806;BME280;25635;51.146;17.162;2023-10-13T01:56:07;100060.98;;;13.46;90.39
38806;BME280;25635;51.146;17.162;2023-10-13T01:58:38;100064.46;;;13.46;90.34
38806;BME280;25635;51.146;17.162;2023-10-13T02:01:11;100064.27;;;13.47;90.22
38806;BME280;25635;51.146;17.162;2023-10-13T02:03:37;100061.42;;;13.49;90.17
38806;BME280;25635;51.146;17.162;2023-10-13T02:06:12;100058.77;;;13.50;90.19
38806;BME280;25635;51.146;17.162;2023-10-13T02:08:44;100055.94;;;13.51;90.08
38806;BME280;25635;51.146;17.162;2023-10-13T02:11:10;100051.56;;;13.51;90.18
38806;BME280;25635;51.146;17.162;2023-10-13T02:13:36;100046.64;;;13.52;90.05
38806;BME280;25635;51.146;17.162;2023-10-13T02:16:14;100043.48;;;13.52;90.25
38806;BME280;25635;51.146;17.162;2023-10-13T02:18:44;100046.45;;;13.53;90.56
38806;BME280;25635;51.146;17.162;2023-10-13T02:21:10;100044.13;;;13.55;90.70
38806;BME280;25635;51.146;17.162;2023-10-13T02:23:40;100043.23;;;13.55;90.58
38806;BME280;25635;51.146;17.162;2023-10-13T02:26:34;100043.73;;;13.56;90.44
38806;BME280;25635;51.146;17.162;2023-10-13T02:29:04;100044.73;;;13.60;90.73
38806;BME280;25635;51.146;17.162;2023-10-13T02:31:38;100045.16;;;13.63;90.97
38806;BME280;25635;51.146;17.162;2023-10-13T02:34:04;100042.71;;;13.64;90.91
38806;BME280;25635;51.146;17.162;2023-10-13T02:36:35;100044.08;;;13.65;90.84
38806;BME280;25635;51.146;17.162;2023-10-13T02:39:05;100046.52;;;13.65;90.51
38806;BME280;25635;51.146;17.162;2023-10-13T02:41:35;100047.92;;;13.65;90.27
38806;BME280;25635;51.146;17.162;2023-10-13T02:44:05;100049.69;;;13.65;90.11
38806;BME280;25635;51.146;17.162;2023-10-13T02:46:33;100039.91;;;13.64;90.05
38806;BME280;25635;51.146;17.162;2023-10-13T02:49:02;100036.27;;;13.62;90.06
38806;BME280;25635;51.146;17.162;2023-10-13T02:51:37;100040.83;;;13.62;90.19
38806;BME280;25635;51.146;17.162;2023-10-13T02:54:04;100043.13;;;13.61;90.17
38806;BME280;25635;51.146;17.162;2023-10-13T02:56:37;100048.08;;;13.58;90.63
38806;BME280;25635;51.146;17.162;2023-10-13T02:59:03;100046.50;;;13.58;90.64
38806;BME280;25635;51.146;17.162;2023-10-13T03:01:33;100047.58;;;13.57;90.39
38806;BME280;25635;51.146;17.162;2023-10-13T03:04:03;100046.73;;;13.56;90.10
38806;BME280;25635;51.146;17.162;2023-10-13T03:06:35;100047.30;;;13.54;89.91
38806;BME280;25635;51.146;17.162;2023-10-13T03:09:03;100051.02;;;13.52;89.82
38806;BME280;25635;51.146;17.162;2023-10-13T03:11:50;100056.52;;;13.49;89.71
38806;BME280;25635;51.146;17.162;2023-10-13T03:14:18;100060.98;;;13.45;89.56
38806;BME280;25635;51.146;17.162;2023-10-13T03:16:59;100057.94;;;13.40;89.35
38806;BME280;25635;51.146;17.162;2023-10-13T03:19:32;100060.52;;;13.34;89.31
38806;BME280;25635;51.146;17.162;2023-10-13T03:22:06;100059.02;;;13.31;89.22
38806;BME280;25635;51.146;17.162;2023-10-13T03:24:39;100056.80;;;13.27;89.12
38806;BME280;25635;51.146;17.162;2023-10-13T03:27:12;100059.68;;;13.23;88.96
38806;BME280;25635;51.146;17.162;2023-10-13T03:29:43;100059.04;;;13.20;89.08
38806;BME280;25635;51.146;17.162;2023-10-13T03:32:10;100058.39;;;13.17;89.17
38806;BME280;25635;51.146;17.162;2023-10-13T03:34:43;100059.33;;;13.14;89.03
38806;BME280;25635;51.146;17.162;2023-10-13T03:37:32;100068.71;;;13.10;89.25
38806;BME280;25635;51.146;17.162;2023-10-13T03:40:09;100066.67;;;13.06;89.14
38806;BME280;25635;51.146;17.162;2023-10-13T03:42:49;100060.27;;;13.02;89.31
38806;BME280;25635;51.146;17.162;2023-10-13T03:45:39;100060.20;;;12.97;89.16
38806;BME280;25635;51.146;17.162;2023-10-13T03:48:07;100058.16;;;12.94;89.15
38806;BME280;25635;51.146;17.162;2023-10-13T03:50:38;100051.60;;;12.90;89.19
38806;BME280;25635;51.146;17.162;2023-10-13T03:53:23;100049.04;;;12.86;89.30
38806;BME280;25635;51.146;17.162;2023-10-13T03:55:51;100049.98;;;12.83;89.82
38806;BME280;25635;51.146;17.162;2023-10-13T03:58:37;100053.77;;;12.77;90.25
38806;BME280;25635;51.146;17.162;2023-10-13T04:01:05;100059.45;;;12.73;89.97
38806;BME280;25635;51.146;17.162;2023-10-13T04:03:35;100056.55;;;12.69;89.97
38806;BME280;25635;51.146;17.162;2023-10-13T04:06:05;100057.52;;;12.64;89.71
38806;BME280;25635;51.146;17.162;2023-10-13T04:08:41;100062.66;;;12.60;89.71
38806;BME280;25635;51.146;17.162;2023-10-13T04:11:14;100065.38;;;12.55;89.77
38806;BME280;25635;51.146;17.162;2023-10-13T04:13:59;100061.40;;;12.53;90.07
38806;BME280;25635;51.146;17.162;2023-10-13T04:16:43;100057.06;;;12.50;89.97
38806;BME280;25635;51.146;17.162;2023-10-13T04:19:20;100053.10;;;12.47;89.76
38806;BME280;25635;51.146;17.162;2023-10-13T04:21:50;100047.92;;;12.44;89.74
38806;BME280;25635;51.146;17.162;2023-10-13T04:24:26;100049.05;;;12.40;89.82
38806;BME280;25635;51.146;17.162;2023-10-13T04:27:25;100052.27;;;12.35;90.09
38806;BME280;25635;51.146;17.162;2023-10-13T04:30:10;100048.46;;;12.33;90.31
38806;BME280;25635;51.146;17.162;2023-10-13T04:32:36;100045.02;;;12.31;90.37
38806;BME280;25635;51.146;17.162;2023-10-13T04:35:12;100044.83;;;12.31;90.51
38806;BME280;25635;51.146;17.162;2023-10-13T04:37:38;100043.08;;;12.30;90.55
38806;BME280;25635;51.146;17.162;2023-10-13T04:40:19;100039.39;;;12.31;90.85
38806;BME280;25635;51.146;17.162;2023-10-13T04:42:53;100039.73;;;12.32;91.05
38806;BME280;25635;51.146;17.162;2023-10-13T04:45:20;100043.17;;;12.35;91.19
38806;BME280;25635;51.146;17.162;2023-10-13T04:48:00;100041.55;;;12.38;91.38
38806;BME280;25635;51.146;17.162;2023-10-13T04:50:43;100043.08;;;12.41;91.48
38806;BME280;25635;51.146;17.162;2023-10-13T04:53:16;100043.55;;;12.43;91.53
38806;BME280;25635;51.146;17.162;2023-10-13T04:56:21;100046.81;;;12.48;92.11
38806;BME280;25635;51.146;17.162;2023-10-13T04:59:06;100045.91;;;12.49;92.16
38806;BME280;25635;51.146;17.162;2023-10-13T05:01:44;100043.42;;;12.51;92.19
38806;BME280;25635;51.146;17.162;2023-10-13T05:04:15;100038.34;;;12.52;93.12
38806;BME280;25635;51.146;17.162;2023-10-13T05:06:44;100040.39;;;12.54;93.90
38806;BME280;25635;51.146;17.162;2023-10-13T05:09:12;100032.68;;;12.55;93.94
38806;BME280;25635;51.146;17.162;2023-10-13T05:11:58;100031.41;;;12.57;93.44
38806;BME280;25635;51.146;17.162;2023-10-13T05:14:42;100033.61;;;12.61;93.09
38806;BME280;25635;51.146;17.162;2023-10-13T05:17:27;100030.71;;;12.66;93.32
38806;BME280;25635;51.146;17.162;2023-10-13T05:20:12;100035.88;;;12.71;94.02
38806;BME280;25635;51.146;17.162;2023-10-13T05:22:57;100039.80;;;12.76;94.11
38806;BME280;25635;51.146;17.162;2023-10-13T05:25:41;100041.30;;;12.80;94.06
38806;BME280;25635;51.146;17.162;2023-10-13T05:28:27;100042.42;;;12.85;93.78
38806;BME280;25635;51.146;17.162;2023-10-13T05:31:11;100039.70;;;12.90;94.22
38806;BME280;25635;51.146;17.162;2023-10-13T05:33:56;100038.91;;;12.95;94.49
38806;BME280;25635;51.146;17.162;2023-10-13T05:36:41;100036.67;;;13.01;94.58
38806;BME280;25635;51.146;17.162;2023-10-13T05:39:25;100036.58;;;13.06;94.40
38806;BME280;25635;51.146;17.162;2023-10-13T05:42:10;100038.60;;;13.10;93.84
38806;BME280;25635;51.146;17.162;2023-10-13T05:44:55;100038.47;;;13.15;94.27
38806;BME280;25635;51.146;17.162;2023-10-13T05:47:39;100036.44;;;13.20;94.09
38806;BME280;25635;51.146;17.162;2023-10-13T05:50:10;100033.54;;;13.26;94.59
38806;BME280;25635;51.146;17.162;2023-10-13T05:52:48;100034.31;;;13.32;95.00
38806;BME280;25635;51.146;17.162;2023-10-13T05:55:30;100032.27;;;13.37;94.92
38806;BME280;25635;51.146;17.162;2023-10-13T05:58:16;100033.34;;;13.44;94.40
38806;BME280;25635;51.146;17.162;2023-10-13T06:01:01;100031.10;;;13.50;94.75
38806;BME280;25635;51.146;17.162;2023-10-13T06:03:46;100036.23;;;13.55;94.33
38806;BME280;25635;51.146;17.162;2023-10-13T06:06:31;100042.77;;;13.61;94.75
38806;BME280;25635;51.146;17.162;2023-10-13T06:09:16;100046.14;;;13.66;95.12
38806;BME280;25635;51.146;17.162;2023-10-13T06:12:01;100049.16;;;13.72;95.47
38806;BME280;25635;51.146;17.162;2023-10-13T06:14:46;100051.10;;;13.79;95.25
38806;BME280;25635;51.146;17.162;2023-10-13T06:17:31;100052.02;;;13.86;95.50
38806;BME280;25635;51.146;17.162;2023-10-13T06:20:16;100053.56;;;13.93;95.37
38806;BME280;25635;51.146;17.162;2023-10-13T06:23:01;100050.44;;;14.00;95.49
38806;BME280;25635;51.146;17.162;2023-10-13T06:25:53;100051.16;;;14.06;95.75
38806;BME280;25635;51.146;17.162;2023-10-13T06:28:39;100052.58;;;14.13;95.67
38806;BME280;25635;51.146;17.162;2023-10-13T06:31:10;100053.83;;;14.18;95.68
38806;BME280;25635;51.146;17.162;2023-10-13T06:34:03;100045.77;;;14.25;95.83
38806;BME280;25635;51.146;17.162;2023-10-13T06:36:29;100046.34;;;14.30;95.70
38806;BME280;25635;51.146;17.162;2023-10-13T06:38:55;100053.60;;;14.35;95.14
38806;BME280;25635;51.146;17.162;2023-10-13T06:41:22;100056.27;;;14.40;95.39
38806;BME280;25635;51.146;17.162;2023-10-13T06:43:56;100050.64;;;14.47;96.00
38806;BME280;25635;51.146;17.162;2023-10-13T06:46:26;100048.73;;;14.54;96.41
38806;BME280;25635;51.146;17.162;2023-10-13T06:48:54;100048.19;;;14.61;96.57
38806;BME280;25635;51.146;17.162;2023-10-13T06:51:20;100052.25;;;14.67;96.61
38806;BME280;25635;51.146;17.162;2023-10-13T06:53:51;100056.26;;;14.74;96.78
38806;BME280;25635;51.146;17.162;2023-10-13T06:56:22;100054.81;;;14.82;96.49
38806;BME280;25635;51.146;17.162;2023-10-13T06:58:54;100052.98;;;14.92;96.69
38806;BME280;25635;51.146;17.162;2023-10-13T07:01:30;100055.61;;;15.04;96.99
38806;BME280;25635;51.146;17.162;2023-10-13T07:04:07;100054.20;;;15.16;97.34
38806;BME280;25635;51.146;17.162;2023-10-13T07:06:43;100056.25;;;15.31;97.58
38806;BME280;25635;51.146;17.162;2023-10-13T07:09:17;100054.10;;;15.43;97.67
38806;BME280;25635;51.146;17.162;2023-10-13T07:12:05;100052.60;;;15.58;97.64
38806;BME280;25635;51.146;17.162;2023-10-13T07:14:49;100054.98;;;15.73;97.58
38806;BME280;25635;51.146;17.162;2023-10-13T07:17:18;100052.13;;;15.85;97.30
38806;BME280;25635;51.146;17.162;2023-10-13T07:19:55;100060.38;;;15.97;96.53
38806;BME280;25635;51.146;17.162;2023-10-13T07:22:50;100063.70;;;16.08;96.13
38806;BME280;25635;51.146;17.162;2023-10-13T07:25:37;100065.31;;;16.23;96.35
38806;BME280;25635;51.146;17.162;2023-10-13T07:28:07;100069.52;;;16.34;95.50
38806;BME280;25635;51.146;17.162;2023-10-13T07:30:38;100073.92;;;16.45;95.27
38806;BME280;25635;51.146;17.162;2023-10-13T07:33:20;100075.98;;;16.56;94.79
38806;BME280;25635;51.146;17.162;2023-10-13T07:36:02;100073.34;;;16.66;94.02
38806;BME280;25635;51.146;17.162;2023-10-13T07:38:55;100064.30;;;16.78;93.63
38806;BME280;25635;51.146;17.162;2023-10-13T07:41:39;100062.34;;;16.90;93.58
38806;BME280;25635;51.146;17.162;2023-10-13T07:44:07;100062.65;;;17.01;93.18
38806;BME280;25635;51.146;17.162;2023-10-13T07:46:33;100066.48;;;17.11;93.11
38806;BME280;25635;51.146;17.162;2023-10-13T07:49:01;100060.54;;;17.20;92.66
38806;BME280;25635;51.146;17.162;2023-10-13T07:51:37;100059.04;;;17.31;93.37
38806;BME280;25635;51.146;17.162;2023-10-13T07:54:13;100058.73;;;17.44;93.40
38806;BME280;25635;51.146;17.162;2023-10-13T07:56:41;100053.91;;;17.55;92.62
38806;BME280;25635;51.146;17.162;2023-10-13T07:59:07;100055.02;;;17.63;91.63
38806;BME280;25635;51.146;17.162;2023-10-13T08:01:34;100052.19;;;17.72;92.26
38806;BME280;25635;51.146;17.162;2023-10-13T08:04:03;100046.45;;;17.83;92.18
38806;BME280;25635;51.146;17.162;2023-10-13T08:06:40;100043.11;;;17.96;92.45
38806;BME280;25635;51.146;17.162;2023-10-13T08:09:07;100045.30;;;18.08;91.63
38806;BME280;25635;51.146;17.162;2023-10-13T08:11:52;100048.56;;;18.18;91.44
38806;BME280;25635;51.146;17.162;2023-10-13T08:14:20;100046.00;;;18.29;91.14
38806;BME280;25635;51.146;17.162;2023-10-13T08:16:55;100042.64;;;18.38;90.17
38806;BME280;25635;51.146;17.162;2023-10-13T08:19:21;100044.87;;;18.43;89.26
38806;BME280;25635;51.146;17.162;2023-10-13T08:21:56;100042.06;;;18.51;89.86
38806;BME280;25635;51.146;17.162;2023-10-13T08:24:42;100036.11;;;18.58;89.24
38806;BME280;25635;51.146;17.162;2023-10-13T08:27:08;100029.85;;;18.68;89.76
38806;BME280;25635;51.146;17.162;2023-10-13T08:29:46;100031.52;;;18.78;89.60
38806;BME280;25635;51.146;17.162;2023-10-13T08:32:35;100040.95;;;18.89;88.86
38806;BME280;25635;51.146;17.162;2023-10-13T08:35:01;100042.44;;;18.99;88.84
38806;BME280;25635;51.146;17.162;2023-10-13T08:37:28;100047.40;;;19.11;88.72
38806;BME280;25635;51.146;17.162;2023-10-13T08:39:59;100049.98;;;19.16;86.93
38806;BME280;25635;51.146;17.162;2023-10-13T08:42:30;100052.42;;;19.24;87.42
38806;BME280;25635;51.146;17.162;2023-10-13T08:45:23;100054.92;;;19.39;87.24
38806;BME280;25635;51.146;17.162;2023-10-13T08:47:50;100052.70;;;19.49;86.63
38806;BME280;25635;51.146;17.162;2023-10-13T08:50:21;100053.90;;;19.57;86.23
38806;BME280;25635;51.146;17.162;2023-10-13T08:53:08;100049.45;;;19.65;85.38
38806;BME280;25635;51.146;17.162;2023-10-13T08:58:36;100050.74;;;19.87;84.46
38806;BME280;25635;51.146;17.162;2023-10-13T09:01:26;100052.02;;;19.93;84.11
38806;BME280;25635;51.146;17.162;2023-10-13T09:04:02;100049.92;;;20.03;84.45
38806;BME280;25635;51.146;17.162;2023-10-13T09:06:45;100049.21;;;20.18;84.29
38806;BME280;25635;51.146;17.162;2023-10-13T09:09:52;100047.48;;;20.28;83.44
38806;BME280;25635;51.146;17.162;2023-10-13T09:12:24;100044.73;;;20.40;83.47
38806;BME280;25635;51.146;17.162;2023-10-13T09:15:02;100043.96;;;20.52;82.38
38806;BME280;25635;51.146;17.162;2023-10-13T09:17:40;100043.38;;;20.60;82.18
38806;BME280;25635;51.146;17.162;2023-10-13T09:20:09;100042.29;;;20.71;81.76
38806;BME280;25635;51.146;17.162;2023-10-13T09:22:58;100038.60;;;20.77;81.09
38806;BME280;25635;51.146;17.162;2023-10-13T09:25:32;100033.82;;;20.87;81.83
38806;BME280;25635;51.146;17.162;2023-10-13T09:28:12;100033.75;;;20.98;81.07
38806;BME280;25635;51.146;17.162;2023-10-13T09:33:10;100029.91;;;21.20;80.60
38806;BME280;25635;51.146;17.162;2023-10-13T09:35:44;100030.27;;;21.30;79.79
38806;BME280;25635;51.146;17.162;2023-10-13T09:38:15;100025.41;;;21.37;78.64
38806;BME280;25635;51.146;17.162;2023-10-13T09:40:44;100029.63;;;21.45;78.87
38806;BME280;25635;51.146;17.162;2023-10-13T09:43:17;100023.64;;;21.48;77.65
38806;BME280;25635;51.146;17.162;2023-10-13T09:45:46;100023.81;;;21.54;78.58
38806;BME280;25635;51.146;17.162;2023-10-13T09:48:36;100021.96;;;21.61;78.15
38806;BME280;25635;51.146;17.162;2023-10-13T09:51:12;100024.13;;;21.67;77.71
38806;BME280;25635;51.146;17.162;2023-10-13T09:53:40;100027.04;;;21.69;76.95
38806;BME280;25635;51.146;17.162;2023-10-13T09:56:15;100029.11;;;21.73;76.56
38806;BME280;25635;51.146;17.162;2023-10-13T09:59:02;100032.46;;;21.76;76.08
38806;BME280;25635;51.146;17.162;2023-10-13T10:01:42;100033.02;;;21.79;75.63
38806;BME280;25635;51.146;17.162;2023-10-13T10:04:23;100030.60;;;21.81;74.86
38806;BME280;25635;51.146;17.162;2023-10-13T10:06:56;100021.52;;;21.81;75.19
38806;BME280;25635;51.146;17.162;2023-10-13T10:09:30;100015.38;;;21.83;74.62
38806;BME280;25635;51.146;17.162;2023-10-13T10:17:46;99993.91;;;21.86;73.29
38806;BME280;25635;51.146;17.162;2023-10-13T10:20:13;99995.52;;;21.86;73.28
38806;BME280;25635;51.146;17.162;2023-10-13T10:22:58;99994.17;;;21.82;72.33
38806;BME280;25635;51.146;17.162;2023-10-13T10:25:35;99992.55;;;21.86;73.35
38806;BME280;25635;51.146;17.162;2023-10-13T10:28:06;99987.54;;;21.93;73.39
38806;BME280;25635;51.146;17.162;2023-10-13T10:30:37;99981.64;;;21.99;73.82
38806;BME280;25635;51.146;17.162;2023-10-13T10:33:09;99972.52;;;22.09;73.94
38806;BME280;25635;51.146;17.162;2023-10-13T10:35:40;99975.30;;;22.16;73.19
38806;BME280;25635;51.146;17.162;2023-10-13T10:38:13;99975.06;;;22.21;73.12
38806;BME280;25635;51.146;17.162;2023-10-13T10:40:51;99972.01;;;22.31;73.40
38806;BME280;25635;51.146;17.162;2023-10-13T10:43:19;99967.35;;;22.40;73.08
38806;BME280;25635;51.146;17.162;2023-10-13T10:45:48;99965.09;;;22.48;71.69
38806;BME280;25635;51.146;17.162;2023-10-13T10:48:18;99958.36;;;22.56;72.29
38806;BME280;25635;51.146;17.162;2023-10-13T10:50:54;99956.48;;;22.67;72.00
38806;BME280;25635;51.146;17.162;2023-10-13T10:53:24;99965.53;;;22.73;70.06
38806;BME280;25635;51.146;17.162;2023-10-13T10:56:13;99959.08;;;22.71;68.74
38806;BME280;25635;51.146;17.162;2023-10-13T10:58:57;99957.89;;;22.70;69.05
38806;BME280;25635;51.146;17.162;2023-10-13T11:01:28;99959.69;;;22.70;69.45
38806;BME280;25635;51.146;17.162;2023-10-13T11:04:13;99955.56;;;22.78;69.69
38806;BME280;25635;51.146;17.162;2023-10-13T11:06:50;99951.17;;;22.86;69.45
38806;BME280;25635;51.146;17.162;2023-10-13T11:09:28;99936.04;;;22.95;69.26
38806;BME280;25635;51.146;17.162;2023-10-13T11:12:15;99933.02;;;22.98;68.61
38806;BME280;25635;51.146;17.162;2023-10-13T11:14:43;99933.64;;;23.03;68.64
38806;BME280;25635;51.146;17.162;2023-10-13T11:17:21;99932.84;;;23.01;68.45
38806;BME280;25635;51.146;17.162;2023-10-13T11:19:52;99931.18;;;23.02;68.52
38806;BME280;25635;51.146;17.162;2023-10-13T11:22:23;99928.27;;;23.00;67.82
38806;BME280;25635;51.146;17.162;2023-10-13T11:24:56;99928.11;;;22.97;67.71
38806;BME280;25635;51.146;17.162;2023-10-13T11:27:31;99923.61;;;22.92;68.10
38806;BME280;25635;51.146;17.162;2023-10-13T11:30:11;99917.16;;;22.90;67.55
38806;BME280;25635;51.146;17.162;2023-10-13T11:32:42;99911.70;;;22.86;68.14
38806;BME280;25635;51.146;17.162;2023-10-13T11:35:09;99912.15;;;22.82;68.09
38806;BME280;25635;51.146;17.162;2023-10-13T11:37:49;99905.02;;;22.80;68.31
38806;BME280;25635;51.146;17.162;2023-10-13T11:40:34;99908.23;;;22.80;67.83
38806;BME280;25635;51.146;17.162;2023-10-13T11:43:29;99904.20;;;22.76;67.44
38806;BME280;25635;51.146;17.162;2023-10-13T11:45:57;99898.02;;;22.75;67.78
38806;BME280;25635;51.146;17.162;2023-10-13T11:48:40;99896.02;;;22.76;67.38
38806;BME280;25635;51.146;17.162;2023-10-13T11:51:11;99890.84;;;22.73;67.91
38806;BME280;25635;51.146;17.162;2023-10-13T11:53:50;99892.41;;;22.77;68.06
38806;BME280;25635;51.146;17.162;2023-10-13T11:56:20;99888.63;;;22.75;67.45
38806;BME280;25635;51.146;17.162;2023-10-13T11:58:46;99882.17;;;22.70;67.43
38806;BME280;25635;51.146;17.162;2023-10-13T12:01:13;99877.14;;;22.69;67.69
38806;BME280;25635;51.146;17.162;2023-10-13T12:03:43;99881.54;;;22.72;67.89
38806;BME280;25635;51.146;17.162;2023-10-13T12:06:29;99882.98;;;22.80;68.20
38806;BME280;25635;51.146;17.162;2023-10-13T12:09:12;99885.91;;;22.90;68.35
38806;BME280;25635;51.146;17.162;2023-10-13T12:11:45;99884.02;;;22.97;67.68
38806;BME280;25635;51.146;17.162;2023-10-13T12:14:12;99879.29;;;22.99;67.45
38806;BME280;25635;51.146;17.162;2023-10-13T12:16:55;99873.91;;;23.02;67.56
38806;BME280;25635;51.146;17.162;2023-10-13T12:19:23;99863.30;;;23.04;67.50
38806;BME280;25635;51.146;17.162;2023-10-13T12:21:50;99865.45;;;23.07;67.65
38806;BME280;25635;51.146;17.162;2023-10-13T12:24:23;99864.98;;;23.14;67.51
38806;BME280;25635;51.146;17.162;2023-10-13T12:27:03;99865.16;;;23.17;67.04
38806;BME280;25635;51.146;17.162;2023-10-13T12:29:48;99860.13;;;23.20;67.12
38806;BME280;25635;51.146;17.162;2023-10-13T12:32:14;99856.81;;;23.24;67.62
38806;BME280;25635;51.146;17.162;2023-10-13T12:34:46;99854.45;;;23.28;66.89
38806;BME280;25635;51.146;17.162;2023-10-13T12:37:30;99858.31;;;23.23;66.01
38806;BME280;25635;51.146;17.162;2023-10-13T12:40:13;99860.64;;;23.18;65.62
38806;BME280;25635;51.146;17.162;2023-10-13T12:42:59;99852.96;;;23.11;65.30
38806;BME280;25635;51.146;17.162;2023-10-13T12:45:44;99846.16;;;23.00;65.22
38806;BME280;25635;51.146;17.162;2023-10-13T12:48:29;99845.14;;;22.96;66.08
38806;BME280;25635;51.146;17.162;2023-10-13T12:51:15;99844.64;;;22.93;65.69
38806;BME280;25635;51.146;17.162;2023-10-13T12:53:51;99835.62;;;22.84;66.21
38806;BME280;25635;51.146;17.162;2023-10-13T12:56:20;99837.64;;;22.77;65.71
38806;BME280;25635;51.146;17.162;2023-10-13T12:58:52;99831.90;;;22.70;66.13
38806;BME280;25635;51.146;17.162;2023-10-13T13:01:19;99829.48;;;22.66;66.31
38806;BME280;25635;51.146;17.162;2023-10-13T13:03:49;99829.50;;;22.60;66.13
38806;BME280;25635;51.146;17.162;2023-10-13T13:06:17;99824.98;;;22.53;66.38
38806;BME280;25635;51.146;17.162;2023-10-13T13:08:44;99818.82;;;22.47;66.25
38806;BME280;25635;51.146;17.162;2023-10-13T13:11:11;99816.42;;;22.40;66.11
38806;BME280;25635;51.146;17.162;2023-10-13T13:13:37;99808.11;;;22.33;66.54
38806;BME280;25635;51.146;17.162;2023-10-13T13:16:03;99800.41;;;22.29;66.78
38806;BME280;25635;51.146;17.162;2023-10-13T13:18:29;99796.94;;;22.24;66.79
38806;BME280;25635;51.146;17.162;2023-10-13T13:20:55;99799.39;;;22.22;66.99
38806;BME280;25635;51.146;17.162;2023-10-13T13:23:22;99796.08;;;22.18;67.06
38806;BME280;25635;51.146;17.162;2023-10-13T13:25:56;99796.77;;;22.13;67.13
38806;BME280;25635;51.146;17.162;2023-10-13T13:28:23;99804.19;;;22.10;67.53
38806;BME280;25635;51.146;17.162;2023-10-13T13:30:50;99799.92;;;22.10;67.67
38806;BME280;25635;51.146;17.162;2023-10-13T13:33:17;99797.91;;;22.05;67.38
38806;BME280;25635;51.146;17.162;2023-10-13T13:35:53;99790.36;;;21.98;67.34